createdAt,value
2023-04-28T00:02:19.008Z,3.40
2023-04-28T00:04:47.864Z,4.00
2023-04-28T00:07:16.270Z,3.67
2023-04-28T00:09:43.417Z,4.07
2023-04-28T00:12:10.218Z,4.53
2023-04-28T00:14:37.258Z,4.27
2023-04-28T00:17:04.611Z,3.70
2023-04-28T00:19:31.913Z,3.80
2023-04-28T00:21:58.835Z,3.97
2023-04-28T00:24:27.034Z,3.80
2023-04-28T00:26:54.404Z,3.97
2023-04-28T00:29:21.169Z,4.30
2023-04-28T00:31:48.413Z,4.07
2023-04-28T00:34:15.574Z,3.93
2023-04-28T00:36:42.844Z,4.17
2023-04-28T00:39:10.088Z,3.80
2023-04-28T00:41:38.555Z,4.30
2023-04-28T00:44:05.390Z,3.80
2023-04-28T00:46:34.257Z,4.80
2023-04-28T00:49:01.588Z,3.97
2023-04-28T00:51:29.570Z,4.13
2023-04-28T00:53:57.109Z,4.20
2023-04-28T00:56:24.488Z,4.57
2023-04-28T00:58:52.941Z,4.50
2023-04-28T01:01:20.442Z,4.87
2023-04-28T01:03:48.051Z,4.07
2023-04-28T01:06:16.637Z,4.67
2023-04-28T01:08:43.947Z,4.50
2023-04-28T01:11:14.521Z,4.00
2023-04-28T01:13:41.471Z,4.10
2023-04-28T01:16:10.065Z,4.67
2023-04-28T01:18:37.287Z,4.40
2023-04-28T01:21:04.569Z,4.07
2023-04-28T01:23:31.722Z,4.47
2023-04-28T01:26:00.000Z,4.43
2023-04-28T01:28:26.797Z,4.30
2023-04-28T01:30:53.949Z,4.63
2023-04-28T01:33:20.725Z,4.20
2023-04-28T01:35:47.860Z,4.03
2023-04-28T01:38:14.739Z,4.20
2023-04-28T01:40:41.903Z,3.67
2023-04-28T01:43:10.082Z,4.30
2023-04-28T01:45:36.921Z,4.17
2023-04-28T01:48:04.336Z,4.20
2023-04-28T01:50:31.279Z,3.80
2023-04-28T01:52:58.500Z,3.90
2023-04-28T01:55:25.882Z,4.30
2023-04-28T01:57:53.106Z,4.07
2023-04-28T02:00:21.512Z,4.20
2023-04-28T02:02:48.787Z,4.43
2023-04-28T02:05:15.902Z,3.90
2023-04-28T02:07:43.046Z,4.00
2023-04-28T02:10:10.434Z,3.87
2023-04-28T02:12:37.560Z,3.53
2023-04-28T02:15:05.286Z,3.90
2023-04-28T02:17:33.872Z,4.20
2023-04-28T02:20:00.776Z,3.77
2023-04-28T02:22:27.988Z,3.90
2023-04-28T02:24:54.838Z,4.57
2023-04-28T02:27:22.109Z,3.87
2023-04-28T02:29:49.025Z,3.73
2023-04-28T02:32:16.302Z,3.80
2023-04-28T02:34:44.491Z,4.10
2023-04-28T02:37:11.918Z,3.90
2023-04-28T02:39:39.985Z,3.53
2023-04-28T02:42:07.142Z,3.87
2023-04-28T02:44:33.925Z,3.83
2023-04-28T02:47:02.325Z,3.97
2023-04-28T02:49:29.338Z,3.97
2023-04-28T02:51:57.777Z,4.00
2023-04-28T02:54:27.842Z,3.97
2023-04-28T02:56:55.536Z,3.70
2023-04-28T02:59:22.754Z,4.30
2023-04-28T03:01:50.004Z,4.47
2023-04-28T03:04:17.171Z,4.03
2023-04-28T03:06:44.615Z,4.20
2023-04-28T03:09:13.809Z,3.97
2023-04-28T03:11:41.600Z,3.80
2023-04-28T03:14:08.440Z,4.13
2023-04-28T03:16:35.649Z,3.87
2023-04-28T03:19:02.500Z,4.10
2023-04-28T03:21:29.828Z,4.10
2023-04-28T03:23:57.033Z,3.90
2023-04-28T03:26:25.754Z,4.23
2023-04-28T03:28:53.115Z,4.37
2023-04-28T03:31:20.548Z,3.80
2023-04-28T03:33:47.690Z,4.50
2023-04-28T03:36:15.388Z,4.20
2023-04-28T03:38:42.644Z,4.37
2023-04-28T03:41:09.571Z,3.97
2023-04-28T03:43:37.738Z,4.53
2023-04-28T03:46:05.243Z,4.50
2023-04-28T03:48:32.184Z,4.20
2023-04-28T03:50:59.426Z,4.40
2023-04-28T03:53:26.266Z,4.70
2023-04-28T03:55:53.498Z,4.40
2023-04-28T03:58:20.367Z,4.70
2023-04-28T04:00:48.895Z,4.73
2023-04-28T04:03:16.090Z,4.80
2023-04-28T04:05:43.490Z,5.03
2023-04-28T04:08:10.426Z,4.87
2023-04-28T04:10:37.620Z,5.00
2023-04-28T04:13:04.432Z,5.07
2023-04-28T04:15:31.780Z,4.77
2023-04-28T04:18:00.001Z,4.87
2023-04-28T04:20:27.146Z,5.13
2023-04-28T04:22:53.908Z,4.90
2023-04-28T04:25:23.172Z,5.10
2023-04-28T04:27:50.280Z,4.53
2023-04-28T04:30:17.468Z,4.97
2023-04-28T04:32:44.338Z,5.53
2023-04-28T04:35:12.899Z,5.87
2023-04-28T04:37:40.181Z,5.60
2023-04-28T04:40:08.745Z,5.60
2023-04-28T04:42:35.687Z,5.43
2023-04-28T04:45:02.872Z,5.73
2023-04-28T04:47:29.756Z,5.50
2023-04-28T04:49:57.137Z,5.57
2023-04-28T04:52:25.552Z,5.73
2023-04-28T04:54:52.885Z,5.73
2023-04-28T04:57:19.727Z,5.87
2023-04-28T04:59:46.963Z,6.17
2023-04-28T05:02:13.985Z,6.03
2023-04-28T05:04:41.460Z,6.07
2023-04-28T05:07:08.444Z,6.53
2023-04-28T05:09:37.102Z,6.27
2023-04-28T05:12:04.334Z,6.90
2023-04-28T05:14:31.456Z,6.23
2023-04-28T05:16:58.375Z,6.60
2023-04-28T05:19:25.734Z,6.73
2023-04-28T05:21:54.616Z,6.67
2023-04-28T05:24:23.622Z,7.13
2023-04-28T05:26:52.884Z,7.30
2023-04-28T05:29:20.232Z,7.33
2023-04-28T05:31:47.739Z,7.27
2023-04-28T05:34:15.125Z,7.50
2023-04-28T05:36:42.691Z,7.30
2023-04-28T05:39:09.509Z,7.63
2023-04-28T05:41:39.494Z,9.13
2023-04-28T05:44:07.613Z,7.43
2023-04-28T05:46:35.017Z,7.80
2023-04-28T05:49:01.960Z,8.03
2023-04-28T05:51:29.381Z,8.97
2023-04-28T05:53:56.656Z,9.03
2023-04-28T05:56:23.844Z,8.60
2023-04-28T05:58:51.347Z,9.43
2023-04-28T06:01:22.336Z,8.57
2023-04-28T06:03:49.704Z,8.70
2023-04-28T06:06:17.286Z,7.87
2023-04-28T06:08:44.527Z,7.90
2023-04-28T06:11:12.067Z,8.03
2023-04-28T06:13:38.890Z,8.80
2023-04-28T06:16:06.800Z,9.10
2023-04-28T06:18:35.419Z,9.23
2023-04-28T06:21:02.296Z,8.13
2023-04-28T06:23:29.159Z,9.10
2023-04-28T06:25:56.517Z,9.27
2023-04-28T06:28:23.278Z,8.63
2023-04-28T06:30:50.408Z,8.87
2023-04-28T06:33:17.296Z,8.77
2023-04-28T06:35:45.844Z,8.90
2023-04-28T06:38:12.589Z,9.07
2023-04-28T06:40:40.892Z,9.47
2023-04-28T06:43:07.681Z,8.90
2023-04-28T06:45:34.964Z,8.57
2023-04-28T06:48:02.279Z,8.43
2023-04-28T06:50:29.259Z,9.00
2023-04-28T06:52:58.756Z,9.40
2023-04-28T06:55:27.077Z,9.00
2023-04-28T06:57:54.048Z,8.47
2023-04-28T07:00:21.514Z,9.17
2023-04-28T07:02:48.567Z,8.77
2023-04-28T07:05:16.675Z,9.10
2023-04-28T07:07:43.687Z,9.10
2023-04-28T07:10:13.740Z,8.73
2023-04-28T07:12:40.990Z,9.10
2023-04-28T07:15:10.309Z,9.03
2023-04-28T07:17:37.521Z,10.70
2023-04-28T07:20:05.624Z,11.47
2023-04-28T07:22:32.391Z,9.43
2023-04-28T07:24:59.600Z,9.50
2023-04-28T07:27:27.887Z,8.40
2023-04-28T07:29:55.095Z,9.00
2023-04-28T07:32:22.705Z,8.93
2023-04-28T07:34:50.222Z,9.40
2023-04-28T07:37:17.114Z,9.27
2023-04-28T07:39:44.298Z,9.10
2023-04-28T07:42:11.275Z,8.97
2023-04-28T07:44:39.894Z,9.40
2023-04-28T07:47:06.799Z,8.87
2023-04-28T07:49:33.925Z,9.03
2023-04-28T07:52:00.748Z,8.80
2023-04-28T07:54:28.078Z,9.10
2023-04-28T07:56:57.921Z,9.50
2023-04-28T07:59:25.025Z,9.83
2023-04-28T08:01:53.184Z,8.73
2023-04-28T08:04:21.044Z,9.00
2023-04-28T08:06:48.182Z,9.37
2023-04-28T08:09:15.412Z,9.00
2023-04-28T08:11:42.236Z,9.70
2023-04-28T08:14:09.376Z,10.70
2023-04-28T08:16:38.421Z,10.03
2023-04-28T08:19:07.079Z,9.67
2023-04-28T08:21:34.241Z,9.97
2023-04-28T08:24:02.083Z,8.87
2023-04-28T08:26:29.224Z,9.10
2023-04-28T08:28:56.036Z,9.00
2023-04-28T08:31:23.849Z,9.50
2023-04-28T08:33:51.550Z,8.80
2023-04-28T08:36:19.688Z,9.00
2023-04-28T08:38:47.571Z,8.97
2023-04-28T08:41:16.619Z,9.10
2023-04-28T08:43:43.837Z,9.37
2023-04-28T08:46:11.357Z,8.63
2023-04-28T08:48:41.494Z,8.93
2023-04-28T08:51:08.956Z,8.93
2023-04-28T08:54:03.974Z,7.77
2023-04-28T08:56:31.758Z,8.30
2023-04-28T08:59:03.656Z,8.40
2023-04-28T09:01:30.693Z,8.23
2023-04-28T09:03:58.135Z,8.53
2023-04-28T09:06:25.209Z,9.10
2023-04-28T09:08:53.810Z,8.93
2023-04-28T09:11:21.021Z,8.20
2023-04-28T09:13:48.307Z,8.33
2023-04-28T09:16:15.202Z,8.70
2023-04-28T09:18:57.347Z,8.00
2023-04-28T09:21:24.175Z,8.00
2023-04-28T09:23:51.438Z,7.97
2023-04-28T09:26:19.595Z,8.63
2023-04-28T09:28:46.432Z,13.10
2023-04-28T09:31:24.140Z,8.10
2023-04-28T09:33:58.070Z,7.27
2023-04-28T09:36:27.396Z,8.13
2023-04-28T09:38:59.250Z,7.70
2023-04-28T09:41:38.251Z,7.90
2023-04-28T09:44:23.985Z,7.97
2023-04-28T09:46:50.843Z,7.57
2023-04-28T09:49:18.218Z,7.60
2023-04-28T09:51:45.055Z,7.53
2023-04-28T09:54:13.452Z,8.13
2023-04-28T09:56:44.082Z,8.13
2023-04-28T09:59:11.495Z,7.93
2023-04-28T10:01:40.603Z,8.27
2023-04-28T10:04:09.263Z,8.00
2023-04-28T10:06:36.855Z,8.37
2023-04-28T10:09:05.441Z,8.10
2023-04-28T10:11:33.922Z,8.03
2023-04-28T10:14:02.692Z,8.50
2023-04-28T10:16:32.659Z,8.47
2023-04-28T10:19:00.787Z,8.80
2023-04-28T10:21:29.914Z,9.10
2023-04-28T10:24:13.756Z,9.53
2023-04-28T10:27:04.462Z,8.77
2023-04-28T10:29:34.222Z,9.10
2023-04-28T10:32:17.936Z,9.27
2023-04-28T10:34:45.142Z,8.90
2023-04-28T10:37:14.987Z,9.63
2023-04-28T10:39:42.077Z,8.87
2023-04-28T10:42:42.924Z,9.17
2023-04-28T10:45:11.306Z,9.50
2023-04-28T10:48:06.744Z,9.27
2023-04-28T10:50:39.137Z,8.93
2023-04-28T10:53:06.327Z,9.70
2023-04-28T10:55:37.399Z,9.30
2023-04-28T10:58:33.186Z,9.53
2023-04-28T11:01:27.756Z,9.47
2023-04-28T11:04:05.289Z,8.77
2023-04-28T11:06:34.595Z,9.40
2023-04-28T11:09:02.976Z,10.23
2023-04-28T11:11:30.493Z,9.07
2023-04-28T11:14:31.904Z,10.10
2023-04-28T11:17:02.946Z,8.70
2023-04-28T11:19:31.053Z,10.20
2023-04-28T11:21:59.105Z,9.17
2023-04-28T11:24:29.164Z,8.90
2023-04-28T11:26:56.549Z,8.97
2023-04-28T11:29:31.774Z,9.43
2023-04-28T11:32:00.191Z,8.97
2023-04-28T11:34:27.713Z,9.33
2023-04-28T11:36:55.032Z,9.23
2023-04-28T11:39:28.629Z,9.47
2023-04-28T11:41:56.444Z,9.30
2023-04-28T11:44:25.151Z,9.53
2023-04-28T11:46:57.243Z,8.90
2023-04-28T11:49:27.206Z,8.90
2023-04-28T11:51:54.724Z,8.63
2023-04-28T11:54:23.473Z,8.17
2023-04-28T11:56:50.746Z,9.40
2023-04-28T11:59:18.374Z,9.27
2023-04-28T12:01:47.887Z,9.13
2023-04-28T12:04:26.556Z,9.07
2023-04-28T12:07:02.008Z,10.50
2023-04-28T12:09:29.892Z,21.83
2023-04-28T12:11:58.072Z,9.60
2023-04-28T12:14:25.823Z,8.73
2023-04-28T12:16:53.089Z,9.10
2023-04-28T12:19:20.717Z,8.90
2023-04-28T12:22:03.999Z,8.50
2023-04-28T12:24:32.434Z,9.03
2023-04-28T12:27:16.246Z,8.53
2023-04-28T12:29:46.556Z,8.67
2023-04-28T12:32:14.116Z,9.23
2023-04-28T12:34:42.481Z,9.37
2023-04-28T12:37:12.200Z,9.97
2023-04-28T12:39:42.457Z,9.70
2023-04-28T12:42:09.527Z,9.60
2023-04-28T12:44:37.786Z,11.30
2023-04-28T12:47:07.213Z,10.63
2023-04-28T12:49:35.377Z,10.93
2023-04-28T12:52:02.605Z,13.80
2023-04-28T12:54:31.248Z,13.60
2023-04-28T12:56:58.152Z,11.63
2023-04-28T12:59:25.472Z,11.37
2023-04-28T13:01:52.435Z,10.10
2023-04-28T13:04:19.980Z,11.13
2023-04-28T13:06:47.364Z,10.93
2023-04-28T13:09:15.801Z,11.10
2023-04-28T13:11:44.141Z,10.53
2023-04-28T13:14:11.474Z,10.90
2023-04-28T13:16:39.350Z,10.47
2023-04-28T13:19:11.024Z,10.47
2023-04-28T13:21:39.391Z,10.40
2023-04-28T13:24:07.140Z,10.90
2023-04-28T13:26:34.160Z,10.90
2023-04-28T13:29:04.045Z,10.27
2023-04-28T13:31:31.473Z,10.50
2023-04-28T13:34:01.053Z,12.80
2023-04-28T13:36:29.344Z,13.80
2023-04-28T13:38:56.730Z,10.30
2023-04-28T13:41:23.626Z,10.57
2023-04-28T13:43:50.732Z,10.33
2023-04-28T13:46:19.248Z,10.70
2023-04-28T13:48:46.534Z,10.83
2023-04-28T13:51:13.480Z,10.57
2023-04-28T13:53:40.767Z,10.57
2023-04-28T13:56:08.266Z,10.60
2023-04-28T13:58:35.877Z,10.90
2023-04-28T14:01:04.339Z,11.33
2023-04-28T14:03:33.031Z,11.23
2023-04-28T14:06:00.359Z,10.43
2023-04-28T14:08:28.012Z,11.33
2023-04-28T14:10:55.255Z,10.27
2023-04-28T14:13:22.322Z,10.83
2023-04-28T14:15:58.464Z,10.87
2023-04-28T14:18:26.331Z,10.60
2023-04-28T14:20:55.030Z,11.20
2023-04-28T14:23:22.530Z,11.13
2023-04-28T14:25:50.524Z,10.27
2023-04-28T14:28:17.410Z,9.70
2023-04-28T14:30:47.861Z,10.27
2023-04-28T14:33:15.204Z,9.80
2023-04-28T14:35:42.522Z,10.87
2023-04-28T14:38:10.858Z,10.17
2023-04-28T14:40:38.088Z,10.03
2023-04-28T14:43:04.864Z,9.80
2023-04-28T14:45:31.983Z,10.47
2023-04-28T14:47:59.060Z,10.97
2023-04-28T14:50:25.899Z,11.27
2023-04-28T14:52:52.662Z,11.30
2023-04-28T14:55:21.387Z,10.63
2023-04-28T14:57:48.303Z,12.10
2023-04-28T15:00:16.662Z,12.20
2023-04-28T15:02:43.576Z,11.50
2023-04-28T15:05:11.796Z,12.37
2023-04-28T15:07:38.675Z,12.33
2023-04-28T15:10:10.076Z,13.30
2023-04-28T15:12:43.564Z,12.63
2023-04-28T15:15:11.758Z,13.10
2023-04-28T15:17:38.845Z,12.43
2023-04-28T15:20:11.129Z,14.63
2023-04-28T15:22:42.290Z,12.63
2023-04-28T15:25:10.384Z,13.97
2023-04-28T15:27:38.692Z,12.77
2023-04-28T15:30:08.077Z,13.40
2023-04-28T15:32:35.047Z,13.80
2023-04-28T15:35:03.149Z,13.17
2023-04-28T15:37:43.013Z,12.87
2023-04-28T15:40:12.337Z,12.97
2023-04-28T15:42:42.620Z,13.53
2023-04-28T15:45:13.295Z,15.33
2023-04-28T15:47:40.614Z,14.27
2023-04-28T15:50:09.512Z,15.20
2023-04-28T15:52:38.423Z,14.37
2023-04-28T15:55:07.224Z,15.67
2023-04-28T15:57:34.092Z,15.93
2023-04-28T16:00:06.512Z,15.10
2023-04-28T16:02:33.728Z,16.20
2023-04-28T16:05:02.754Z,15.60
2023-04-28T16:07:31.501Z,16.00
2023-04-28T16:09:58.851Z,16.53
2023-04-28T16:12:25.786Z,16.57
2023-04-28T16:14:53.199Z,15.83
2023-04-28T16:17:22.882Z,17.57
2023-04-28T16:19:50.565Z,17.10
2023-04-28T16:22:17.350Z,17.70
2023-04-28T16:24:45.633Z,18.60
2023-04-28T16:27:12.785Z,19.00
2023-04-28T16:29:39.837Z,18.10
2023-04-28T16:32:06.712Z,18.10
2023-04-28T16:34:34.930Z,20.53
2023-04-28T16:37:02.620Z,21.47
2023-04-28T16:39:31.406Z,19.23
2023-04-28T16:42:00.823Z,18.10
2023-04-28T16:44:28.586Z,18.87
2023-04-28T16:46:55.970Z,19.10
2023-04-28T16:49:23.372Z,19.10
2023-04-28T16:51:58.763Z,19.13
2023-04-28T16:54:25.831Z,20.67
2023-04-28T16:56:52.686Z,19.53
2023-04-28T16:59:20.106Z,19.13
2023-04-28T17:01:47.005Z,19.07
2023-04-28T17:04:14.883Z,20.00
2023-04-28T17:06:41.879Z,20.57
2023-04-28T17:09:10.428Z,20.27
2023-04-28T17:11:40.269Z,21.43
2023-04-28T17:14:07.506Z,20.63
2023-04-28T17:16:34.736Z,20.23
2023-04-28T17:19:01.938Z,21.40
2023-04-28T17:21:29.524Z,21.87
2023-04-28T17:23:59.546Z,22.07
2023-04-28T17:26:30.512Z,22.50
2023-04-28T17:29:01.155Z,22.70
2023-04-28T17:31:29.048Z,22.33
2023-04-28T17:33:57.592Z,24.33
2023-04-28T17:36:27.003Z,25.43
2023-04-28T17:38:54.002Z,25.33
2023-04-28T17:41:21.549Z,26.53
2023-04-28T17:43:51.438Z,29.83
2023-04-28T17:46:19.001Z,29.67
2023-04-28T17:48:46.163Z,31.70
2023-04-28T17:51:13.319Z,34.10
2023-04-28T17:53:40.190Z,32.70
2023-04-28T17:56:08.478Z,34.63
2023-04-28T17:58:36.281Z,32.57
2023-04-28T18:01:06.001Z,33.60
2023-04-28T18:03:34.756Z,34.93
2023-04-28T18:06:02.622Z,35.30
2023-04-28T18:08:29.591Z,36.10
2023-04-28T18:10:58.320Z,35.83
2023-04-28T18:13:25.339Z,35.20
2023-04-28T18:15:52.964Z,35.83
2023-04-28T18:18:21.173Z,36.87
2023-04-28T18:20:48.551Z,38.53
2023-04-28T18:23:15.494Z,39.33
2023-04-28T18:25:44.042Z,36.83
2023-04-28T18:28:10.968Z,37.73
2023-04-28T18:30:38.139Z,37.40
2023-04-28T18:33:05.509Z,37.80
2023-04-28T18:35:34.289Z,38.20
2023-04-28T18:38:01.077Z,38.00
2023-04-28T18:40:32.621Z,37.60
2023-04-28T18:43:00.499Z,37.53
2023-04-28T18:45:31.338Z,37.80
2023-04-28T18:47:59.067Z,36.27
2023-04-28T18:50:26.731Z,37.57
2023-04-28T18:52:54.887Z,36.60
2023-04-28T18:55:22.225Z,35.80
2023-04-28T18:57:49.247Z,36.87
2023-04-28T19:00:16.387Z,35.10
2023-04-28T19:02:44.471Z,33.83
2023-04-28T19:05:12.179Z,36.97
2023-04-28T19:07:39.983Z,36.53
2023-04-28T19:10:09.288Z,37.47
2023-04-28T19:12:36.185Z,34.83
2023-04-28T19:15:03.029Z,33.50
2023-04-28T19:17:30.306Z,34.03
2023-04-28T19:19:57.853Z,32.20
2023-04-28T19:22:36.449Z,33.53
2023-04-28T19:25:04.761Z,32.17
2023-04-28T19:27:34.734Z,32.33
2023-04-28T19:30:02.305Z,32.27
2023-04-28T19:32:29.553Z,33.53
2023-04-28T19:34:56.653Z,33.97
2023-04-28T19:37:23.645Z,34.60
2023-04-28T19:39:51.402Z,31.67
2023-04-28T19:42:18.746Z,32.07
2023-04-28T19:44:48.798Z,32.00
2023-04-28T19:47:23.839Z,31.97
2023-04-28T19:49:51.882Z,31.77
2023-04-28T19:52:20.918Z,30.53
2023-04-28T19:54:48.638Z,31.07
2023-04-28T19:57:16.320Z,31.20
2023-04-28T19:59:43.527Z,32.97
2023-04-28T20:02:11.634Z,33.13
2023-04-28T20:04:40.063Z,33.70
2023-04-28T20:07:08.431Z,32.93
2023-04-28T20:09:35.917Z,32.93
2023-04-28T20:12:04.267Z,32.70
2023-04-28T20:14:31.761Z,33.17
2023-04-28T20:16:58.978Z,35.33
2023-04-28T20:19:27.613Z,33.93
2023-04-28T20:21:54.480Z,34.43
2023-04-28T20:24:21.909Z,31.67
2023-04-28T20:26:50.588Z,32.43
2023-04-28T20:29:18.203Z,32.63
2023-04-28T20:31:45.113Z,33.40
2023-04-28T20:34:13.327Z,34.33
2023-04-28T20:36:42.848Z,33.80
2023-04-28T20:39:11.308Z,33.37
2023-04-28T20:41:40.919Z,33.47
2023-04-28T20:44:08.764Z,33.43
2023-04-28T20:46:36.042Z,33.03
2023-04-28T20:49:04.617Z,32.50
2023-04-28T20:51:33.941Z,32.53
2023-04-28T20:54:04.235Z,34.63
2023-04-28T20:56:31.053Z,34.43
2023-04-28T20:58:58.225Z,33.60
2023-04-28T21:01:25.449Z,33.13
2023-04-28T21:03:52.860Z,33.50
2023-04-28T21:06:19.809Z,33.23
2023-04-28T21:08:47.007Z,33.03
2023-04-28T21:11:16.022Z,32.30
2023-04-28T21:13:43.659Z,33.60
2023-04-28T21:16:17.630Z,34.87
2023-04-28T21:18:47.309Z,32.23
2023-04-28T21:21:14.244Z,33.57
2023-04-28T21:23:41.500Z,33.93
2023-04-28T21:26:08.700Z,33.57
2023-04-28T21:28:37.113Z,32.93
2023-04-28T21:31:04.908Z,33.37
2023-04-28T21:33:32.586Z,34.53
2023-04-28T21:36:05.491Z,35.10
2023-04-28T21:38:33.290Z,35.77
2023-04-28T21:41:00.367Z,34.73
2023-04-28T21:43:27.170Z,36.13
2023-04-28T21:45:55.331Z,35.77
2023-04-28T21:48:22.761Z,35.17
2023-04-28T21:50:49.732Z,36.40
2023-04-28T21:53:17.037Z,34.53
2023-04-28T21:55:44.463Z,36.43
2023-04-28T21:58:12.159Z,35.70
2023-04-28T22:00:41.706Z,34.80
2023-04-28T22:03:10.745Z,35.20
2023-04-28T22:05:39.344Z,35.07
2023-04-28T22:08:06.563Z,35.13
2023-04-28T22:10:34.387Z,32.67
2023-04-28T22:13:01.755Z,32.60
2023-04-28T22:15:28.760Z,32.87
2023-04-28T22:17:55.948Z,30.37
2023-04-28T22:20:24.140Z,32.10
2023-04-28T22:22:51.420Z,31.80
2023-04-28T22:25:18.406Z,27.00
2023-04-28T22:27:45.916Z,27.23
2023-04-28T22:30:13.581Z,25.73
2023-04-28T22:32:44.852Z,23.53
2023-04-28T22:35:14.679Z,23.63
2023-04-28T22:37:43.825Z,22.70
2023-04-28T22:40:11.158Z,21.70
2023-04-28T22:42:39.282Z,22.87
2023-04-28T22:45:06.978Z,21.13
2023-04-28T22:47:34.898Z,20.67
2023-04-28T22:50:06.289Z,20.67
2023-04-28T22:52:33.539Z,20.03
2023-04-28T22:55:01.954Z,19.73
2023-04-28T22:57:29.216Z,18.70
2023-04-28T22:59:56.146Z,18.67
2023-04-28T23:02:23.432Z,18.77
2023-04-28T23:04:50.771Z,17.57
2023-04-28T23:07:18.037Z,18.37
2023-04-28T23:09:44.972Z,17.37
2023-04-28T23:12:13.483Z,17.27
2023-04-28T23:14:40.378Z,17.10
2023-04-28T23:17:07.597Z,16.37
2023-04-28T23:19:39.036Z,16.80
2023-04-28T23:22:07.516Z,17.20
2023-04-28T23:24:36.600Z,15.87
2023-04-28T23:27:04.006Z,16.73
2023-04-28T23:29:32.447Z,15.93
2023-04-28T23:31:59.450Z,15.70
2023-04-28T23:34:26.993Z,15.27
2023-04-28T23:36:54.081Z,15.50
2023-04-28T23:39:20.832Z,15.57
2023-04-28T23:41:47.993Z,16.37
2023-04-28T23:44:14.910Z,15.93
2023-04-28T23:46:43.587Z,15.40
2023-04-28T23:49:10.348Z,15.97
2023-04-28T23:51:37.206Z,15.70
2023-04-28T23:54:04.101Z,15.70
2023-04-28T23:56:32.106Z,15.03
2023-04-28T23:58:58.937Z,16.57
